Time;durP1;ratioP1;P1;durP2;ratioP2;P2;SDS_P1;SDS_P2;PMS_P1;PMS_P2;Temp;Humidity;BMP_temperature;BMP_pressure;BME280_temperature;BME280_humidity;BME280_pressure;Samples;Min_cycle;Max_cycle;Signal;HPM_P1;HPM_P2
2022/05/29 00:01:09;;;;;;;26.13;10.65;;;;;;;17.13;80.93;94738.44;4921456;29;20050;-83
2022/05/29 00:03:35;;;;;;;30.65;11.77;;;;;;;17.86;81.69;94849.59;4937947;28;20027;-82
2022/05/29 00:06:02;;;;;;;27.85;12.45;;;;;;;17.48;82.00;94801.41;4938016;29;20432;-82
2022/05/29 00:08:30;;;;;;;36.47;11.80;;;;;;;17.73;82.17;94854.13;4926855;29;20044;-82
2022/05/29 00:10:57;;;;;;;31.63;12.95;;;;;;;17.86;82.81;94846.91;4935598;29;20536;-82
2022/05/29 00:13:24;;;;;;;29.30;12.88;;;;;;;17.39;82.27;94757.03;4939488;28;20028;-82
2022/05/29 00:15:49;;;;;;;34.08;13.40;;;;;;;18.21;82.62;94850.13;4937784;29;20184;-82
2022/05/29 00:18:15;;;;;;;28.83;12.57;;;;;;;17.70;82.02;94782.34;4921990;29;20094;-82
2022/05/29 00:20:51;;;;;;;29.52;11.60;;;;;;;17.76;80.60;94817.03;4940139;29;20536;-81
2022/05/29 00:23:17;;;;;;;27.15;11.63;;;;;;;18.22;81.54;94856.28;4939440;29;20139;-83
2022/05/29 00:25:46;;;;;;;35.38;11.77;;;;;;;17.67;81.86;94799.09;4917179;29;20139;-82
2022/05/29 00:28:12;;;;;;;26.60;11.35;;;;;;;17.46;81.76;94770.69;4927023;29;20478;-82
2022/05/29 00:30:37;;;;;;;21.98;11.88;;;;;;;17.35;82.68;94743.47;4922142;29;20109;-83
2022/05/29 00:33:05;;;;;;;40.08;13.02;;;;;;;18.06;82.60;94779.06;4921694;29;20031;-82
2022/05/29 00:35:31;;;;;;;35.40;13.77;;;;;;;17.78;82.74;94686.06;4939342;28;20043;-82
2022/05/29 00:37:57;;;;;;;33.22;13.18;;;;;;;18.37;82.38;94759.81;4937862;29;20098;-83
2022/05/29 00:40:31;;;;;;;33.10;13.80;;;;;;;18.55;81.75;94789.13;4908749;29;20040;-83
2022/05/29 00:42:57;;;;;;;22.05;11.25;;;;;;;17.99;80.88;94727.84;4935527;29;20043;-83
2022/05/29 00:45:23;;;;;;;33.25;12.43;;;;;;;18.46;80.37;94798.06;4923321;29;20241;-83
2022/05/29 00:47:49;;;;;;;29.75;11.40;;;;;;;16.64;81.32;94523.88;4937040;29;20474;-82
2022/05/29 00:50:22;;;;;;;27.38;12.35;;;;;;;18.20;82.60;94748.47;4937716;28;20126;-83
2022/05/29 00:52:48;;;;;;;27.05;11.68;;;;;;;18.15;82.55;94733.38;4938980;29;20035;-83
2022/05/29 00:55:29;;;;;;;32.85;11.52;;;;;;;17.94;82.05;94759.44;4935541;29;20066;-83
2022/05/29 00:58:00;;;;;;;32.30;11.63;;;;;;;18.13;81.30;94845.63;4908638;29;20572;-83
2022/05/29 01:00:28;;;;;;;29.45;11.23;;;;;;;18.01;82.25;94819.50;4915758;29;20624;-83
2022/05/29 01:02:56;;;;;;;28.98;12.63;;;;;;;17.77;82.54;94719.38;4932933;29;20494;-83
2022/05/29 01:05:24;;;;;;;38.65;14.13;;;;;;;18.01;82.99;94719.44;4942648;29;20082;-82
2022/05/29 01:08:02;;;;;;;34.30;12.15;;;;;;;17.40;82.45;94611.94;4941351;29;20508;-83
2022/05/29 01:10:48;;;;;;;23.38;11.80;;;;;;;18.27;82.67;94737.97;4926686;29;20506;-83
2022/05/29 01:13:45;;;;;;;28.25;11.55;;;;;;;17.75;83.39;94692.88;4906161;29;20094;-83
2022/05/29 01:16:26;;;;;;;30.25;12.90;;;;;;;18.04;83.81;94743.72;4924777;29;20047;-82
2022/05/29 01:19:18;;;;;;;25.10;11.13;;;;;;;18.13;82.32;94771.25;4924535;29;20039;-82
2022/05/29 01:21:44;;;;;;;;;;;;;;;18.17;83.08;94751.78;4942371;29;20903;-82
2022/05/29 01:24:28;;;;;;;34.97;13.15;;;;;;;18.17;83.40;94739.16;4923635;29;20265;-82
2022/05/29 01:27:18;;;;;;;26.83;11.88;;;;;;;18.22;81.86;94795.34;4940783;29;20043;-82
2022/05/29 01:29:56;;;;;;;37.60;13.43;;;;;;;18.31;82.87;94806.75;4924530;28;20042;-83
2022/05/29 01:32:41;;;;;;;40.40;16.70;;;;;;;17.92;83.84;94689.25;4940252;29;20058;-81
2022/05/29 01:35:21;;;;;;;55.08;15.93;;;;;;;17.42;82.96;94651.81;4929344;29;20552;-82
2022/05/29 01:38:04;;;;;;;37.35;14.70;;;;;;;17.64;83.96;94678.28;4940158;29;20565;-82
2022/05/29 01:40:55;;;;;;;33.17;15.40;;;;;;;17.83;83.53;94689.34;4943673;29;20146;-83
2022/05/29 01:43:27;;;;;;;27.52;14.13;;;;;;;17.82;82.92;94692.34;4925844;29;20027;-82
2022/05/29 01:46:06;;;;;;;34.47;14.57;;;;;;;17.98;82.96;94728.94;4942338;29;20058;-82
2022/05/29 01:48:57;;;;;;;31.65;13.90;;;;;;;17.88;82.87;94740.09;4924766;29;20118;-82
2022/05/29 01:51:36;;;;;;;34.45;12.60;;;;;;;17.19;83.91;94660.19;4942700;29;20497;-83
2022/05/29 01:54:12;;;;;;;30.77;13.10;;;;;;;17.62;84.75;94702.00;4942184;29;20031;-82
2022/05/29 01:56:52;;;;;;;30.70;12.65;;;;;;;17.91;83.39;94734.06;4924453;29;20027;-82
2022/05/29 01:59:37;;;;;;;27.95;12.77;;;;;;;18.03;84.16;94728.72;4924693;29;20062;-82
2022/05/29 02:02:09;;;;;;;29.55;12.30;;;;;;;17.93;82.87;94731.81;4924272;29;20042;-82
2022/05/29 02:04:41;;;;;;;19.77;10.82;;;;;;;17.52;82.30;94646.84;4940196;29;20031;-82
2022/05/29 02:10:09;;;;;;;25.65;9.35;;;;;;;17.51;81.57;94639.13;4940117;29;20141;-82
2022/05/29 02:12:39;;;;;;;18.00;7.35;;;;;;;17.45;81.14;94654.63;4926992;29;20031;-82
2022/05/29 02:15:09;;;;;;;15.48;7.47;;;;;;;17.87;81.82;94730.47;4941797;29;20045;-82
2022/05/29 02:17:39;;;;;;;20.08;7.35;;;;;;;17.62;80.96;94672.50;4941519;29;20126;-81
2022/05/29 02:20:20;;;;;;;17.37;7.90;;;;;;;17.40;81.32;94619.97;4924570;29;20520;-81
2022/05/29 02:22:49;;;;;;;16.55;8.73;;;;;;;17.63;81.48;94658.75;4941854;29;20122;-82
2022/05/29 02:25:20;;;;;;;31.42;8.75;;;;;;;16.98;81.05;94574.47;4923865;29;20062;-82
2022/05/29 02:27:54;;;;;;;20.70;8.25;;;;;;;17.55;79.84;94626.63;4940863;29;20039;-83
2022/05/29 02:30:25;;;;;;;26.48;9.07;;;;;;;17.97;80.05;94697.88;4940637;29;20118;-82
2022/05/29 02:33:07;;;;;;;18.67;7.18;;;;;;;17.88;79.79;94699.84;4923776;29;20049;-82
2022/05/29 02:35:36;;;;;;;15.40;7.53;;;;;;;17.98;79.95;94683.34;4916537;29;20503;-81
2022/05/29 02:38:17;;;;;;;22.35;8.10;;;;;;;17.38;79.95;94600.78;4913177;29;20074;-82
2022/05/29 02:40:51;;;;;;;13.50;7.43;;;;;;;17.98;79.51;94664.56;4941070;29;20043;-81
2022/05/29 02:43:39;;;;;;;15.73;7.00;;;;;;;18.09;78.67;94665.69;4923086;29;20047;-82
2022/05/29 02:46:46;;;;;;;20.60;7.43;;;;;;;17.99;78.81;94646.56;4922363;29;20065;-81
2022/05/29 02:49:25;;;;;;;26.60;8.82;;;;;;;18.09;79.97;94664.91;4940480;29;20066;-81
2022/05/29 02:51:57;;;;;;;28.50;9.20;;;;;;;18.13;79.75;94663.13;4940120;28;20525;-83
2022/05/29 02:54:28;;;;;;;24.88;8.48;;;;;;;17.33;79.05;94525.91;4940744;29;20039;-82
2022/05/29 02:56:55;;;;;;;29.95;8.13;;;;;;;17.71;78.65;94582.00;4926649;29;20044;-82
2022/05/29 02:59:25;;;;;;;19.50;8.18;;;;;;;18.27;78.77;94666.28;4936309;29;20158;-82
2022/05/29 03:02:16;;;;;;;28.23;8.90;;;;;;;18.25;79.64;94673.09;4922637;29;20106;-82
2022/05/29 03:04:53;;;;;;;20.48;8.57;;;;;;;18.11;78.22;94666.16;4909838;29;20135;-82
2022/05/29 03:07:36;;;;;;;23.88;8.27;;;;;;;18.13;78.90;94655.09;4940245;29;20042;-82
2022/05/29 03:10:18;;;;;;;22.35;9.15;;;;;;;18.13;79.28;94641.66;4922924;29;20421;-82
2022/05/29 03:13:09;;;;;;;21.88;9.27;;;;;;;18.20;78.48;94635.75;4910466;29;20049;-82
2022/05/29 03:15:49;;;;;;;29.63;10.80;;;;;;;18.18;78.76;94641.44;4938794;29;20053;-82
2022/05/29 03:18:40;;;;;;;28.52;10.68;;;;;;;18.15;79.25;94642.13;4889827;29;20040;-82
2022/05/29 03:21:44;;;;;;;20.17;9.30;;;;;;;18.00;78.68;94632.78;4940102;28;20094;-82
2022/05/29 03:24:25;;;;;;;20.52;8.63;;;;;;;18.09;77.46;94621.97;4903393;29;20418;-81
2022/05/29 03:27:12;;;;;;;23.20;8.63;;;;;;;17.90;78.07;94608.31;4938943;29;20043;-82
2022/05/29 03:29:42;;;;;;;22.95;8.52;;;;;;;18.08;77.99;94631.91;4937992;28;21063;-82
2022/05/29 03:32:09;;;;;;;23.35;8.73;;;;;;;17.69;77.73;94579.69;4923159;29;20425;-82
2022/05/29 03:34:34;;;;;;;22.98;8.30;;;;;;;17.79;78.25;94586.50;4938948;29;20059;-82
2022/05/29 03:37:00;;;;;;;23.05;7.57;;;;;;;17.91;78.98;94599.16;4923044;29;20078;-82
2022/05/29 03:39:26;;;;;;;27.27;9.05;;;;;;;18.17;79.34;94631.03;4922506;29;20479;-82
2022/05/29 03:41:53;;;;;;;19.55;8.10;;;;;;;18.17;78.57;94637.19;4940184;29;20050;-82
2022/05/29 03:44:22;;;;;;;20.30;7.88;;;;;;;17.69;78.69;94549.41;4922515;29;20097;-81
2022/05/29 03:46:48;;;;;;;21.83;7.68;;;;;;;17.97;78.65;94603.19;4939737;28;20123;-82
2022/05/29 03:49:16;;;;;;;18.98;8.25;;;;;;;16.87;77.62;94436.72;4939795;29;20035;-81
2022/05/29 03:51:42;;;;;;;16.02;7.75;;;;;;;17.35;78.50;94539.78;4939347;28;20130;-81
2022/05/29 03:54:08;;;;;;;24.63;8.73;;;;;;;17.26;78.68;94534.50;4923021;29;20150;-82
2022/05/29 03:56:34;;;;;;;19.60;8.50;;;;;;;17.13;79.37;94583.81;4923697;29;20035;-81
2022/05/29 03:59:00;;;;;;;20.10;9.07;;;;;;;16.98;79.93;94561.09;4938632;29;20521;-82
2022/05/29 04:01:28;;;;;;;26.48;8.90;;;;;;;17.53;79.89;94594.78;4922436;29;20122;-82
2022/05/29 04:03:54;;;;;;;23.95;9.00;;;;;;;17.86;79.53;94613.53;4922534;29;20039;-82
2022/05/29 04:06:24;;;;;;;21.67;8.80;;;;;;;17.74;78.78;94602.81;4922318;29;20050;-82
2022/05/29 04:14:21;;;;;;;19.05;6.30;;;;;;;17.55;78.78;94543.50;4940184;28;20089;-82
2022/05/29 04:16:47;;;;;;;23.45;7.80;;;;;;;17.50;78.69;94517.72;4922522;29;20039;-81
2022/05/29 04:19:12;;;;;;;14.57;7.63;;;;;;;17.52;78.43;94528.88;4939028;29;20118;-81
2022/05/29 04:21:38;;;;;;;26.98;7.20;;;;;;;18.05;77.42;94608.44;4940443;29;20905;-82
2022/05/29 04:24:03;;;;;;;16.35;7.60;;;;;;;17.89;77.76;94580.72;4939583;29;20458;-82
2022/05/29 04:26:29;;;;;;;16.75;6.47;;;;;;;17.55;77.87;94514.00;4940107;29;20035;-82
2022/05/29 04:28:54;;;;;;;17.20;6.85;;;;;;;17.83;78.31;94576.69;4922308;29;20043;-81
2022/05/29 04:31:20;;;;;;;17.35;7.45;;;;;;;18.27;78.09;94612.59;4921216;29;20035;-82
2022/05/29 04:33:45;;;;;;;20.08;7.22;;;;;;;17.75;78.18;94521.25;4939585;28;20035;-81
2022/05/29 04:36:11;;;;;;;21.83;7.13;;;;;;;17.97;77.15;94536.13;4925242;29;20031;-82
2022/05/29 04:38:37;;;;;;;17.92;7.00;;;;;;;18.01;76.53;94534.31;4943419;29;20405;-82
2022/05/29 04:41:07;;;;;;;12.95;5.93;;;;;;;18.50;76.08;94627.16;4925646;29;20844;-81
2022/05/29 04:43:33;;;;;;;18.30;6.75;;;;;;;18.23;77.61;94578.72;4925623;29;20050;-82
2022/05/29 04:45:58;;;;;;;15.65;6.55;;;;;;;18.42;77.25;94584.28;4925840;29;20500;-81
2022/05/29 04:48:24;;;;;;;23.67;6.80;;;;;;;18.45;76.44;94591.69;4943868;29;20324;-81
2022/05/29 04:51:01;;;;;;;22.40;6.57;;;;;;;18.20;75.71;94545.28;4942727;29;20067;-81
2022/05/29 04:53:28;;;;;;;12.13;6.15;;;;;;;18.08;76.31;94529.16;4925316;28;20035;-81
2022/05/29 04:55:55;;;;;;;16.85;5.80;;;;;;;18.77;76.29;94622.22;4912131;29;20573;-82
2022/05/29 04:58:23;;;;;;;18.92;6.95;;;;;;;18.36;76.04;94548.06;4921051;29;20055;-81
2022/05/29 05:00:48;;;;;;;20.10;5.97;;;;;;;18.26;75.74;94545.81;4924891;29;20500;-81
2022/05/29 05:03:14;;;;;;;22.17;5.97;;;;;;;18.72;76.19;94600.97;4908281;29;20040;-81
2022/05/29 05:05:39;;;;;;;14.32;5.80;;;;;;;18.69;75.26;94613.16;4941510;29;20055;-81
2022/05/29 05:08:05;;;;;;;17.25;6.68;;;;;;;18.80;76.49;94618.84;4924952;29;20498;-81
2022/05/29 05:10:30;;;;;;;16.85;5.82;;;;;;;18.61;76.33;94575.72;4924622;29;20434;-81
2022/05/29 05:12:56;;;;;;;23.73;6.05;;;;;;;18.29;75.88;94529.84;4938198;29;20418;-81
2022/05/29 05:15:21;;;;;;;21.60;5.82;;;;;;;18.32;75.75;94552.53;4927896;29;20441;-81
2022/05/29 05:17:47;;;;;;;15.43;5.72;;;;;;;18.93;75.90;94608.88;4924644;29;20172;-81
2022/05/29 05:20:13;;;;;;;25.52;5.95;;;;;;;18.56;75.62;94546.34;4942313;29;20152;-82
2022/05/29 05:22:39;;;;;;;27.77;5.85;;;;;;;18.41;75.09;94523.66;4924646;29;20122;-82
2022/05/29 05:25:05;;;;;;;18.38;4.93;;;;;;;19.00;74.77;94582.97;4942294;29;20046;-81
2022/05/29 05:27:30;;;;;;;27.05;6.85;;;;;;;18.79;74.33;94558.97;4942526;28;20125;-81
2022/05/29 05:29:56;;;;;;;24.75;6.60;;;;;;;18.49;75.06;94496.69;4924506;29;20039;-81
2022/05/29 05:32:21;;;;;;;15.13;5.22;;;;;;;18.60;74.20;94512.38;4925741;29;20049;-81
2022/05/29 05:34:47;;;;;;;29.73;6.05;;;;;;;18.82;74.08;94554.84;4942453;28;20031;-82
2022/05/29 05:37:13;;;;;;;24.58;5.68;;;;;;;18.92;74.02;94550.91;4942281;29;20122;-81
2022/05/29 05:39:39;;;;;;;16.67;6.32;;;;;;;18.88;74.04;94540.03;4942670;29;20049;-81
2022/05/29 05:42:05;;;;;;;26.25;7.65;;;;;;;19.13;74.33;94564.94;4942712;29;20039;-81
2022/05/29 05:44:31;;;;;;;21.48;5.00;;;;;;;18.81;74.56;94504.91;4941062;28;20129;-81
2022/05/29 05:46:56;;;;;;;22.73;5.72;;;;;;;18.93;74.44;94499.50;4936848;28;20042;-81
2022/05/29 05:49:23;;;;;;;28.08;5.57;;;;;;;19.42;74.04;94606.81;4910086;29;20075;-80
2022/05/29 05:51:50;;;;;;;14.80;5.50;;;;;;;19.34;73.75;94603.16;4941732;29;20043;-80
2022/05/29 05:54:17;;;;;;;16.58;5.88;;;;;;;19.19;73.68;94574.31;4924070;29;20734;-81
2022/05/29 05:56:45;;;;;;;16.27;5.82;;;;;;;19.54;73.89;94587.94;4943545;29;20134;-81
2022/05/29 05:59:11;;;;;;;22.10;5.85;;;;;;;19.36;73.39;94533.69;4924572;29;20054;-81
2022/05/29 06:01:38;;;;;;;20.23;5.57;;;;;;;19.15;73.63;94504.31;4924883;29;20523;-82
2022/05/29 06:04:03;;;;;;;16.85;5.68;;;;;;;19.46;73.34;94596.94;4924368;29;20031;-82
2022/05/29 06:06:29;;;;;;;21.67;5.70;;;;;;;19.36;73.94;94605.50;4927401;29;20042;-81
2022/05/29 06:08:56;;;;;;;27.15;4.75;;;;;;;19.61;72.72;94609.66;4934968;29;20038;-81
2022/05/29 06:11:21;;;;;;;26.90;5.72;;;;;;;19.15;73.70;94550.00;4909075;29;20042;-81
2022/05/29 06:13:47;;;;;;;18.52;5.60;;;;;;;19.36;72.46;94571.34;4938464;29;20184;-82
2022/05/29 06:16:13;;;;;;;19.83;5.45;;;;;;;18.95;71.53;94489.19;4940464;29;20035;-81
2022/05/29 06:18:41;;;;;;;22.58;5.57;;;;;;;19.55;71.84;94551.88;4941084;28;20498;-81
2022/05/29 06:21:07;;;;;;;20.63;5.38;;;;;;;19.38;71.79;94531.41;4940590;29;20301;-81
2022/05/29 06:23:35;;;;;;;15.15;5.28;;;;;;;19.81;71.96;94589.84;4923710;29;20027;-81
2022/05/29 06:26:03;;;;;;;24.80;5.35;;;;;;;19.50;72.20;94554.81;4941518;29;20035;-81
2022/05/29 06:28:28;;;;;;;104.30;58.30;;;;;;;19.25;71.05;94508.41;4941517;28;20035;-82
2022/05/29 06:30:54;;;;;;;15.43;4.88;;;;;;;19.05;71.66;94459.16;4923035;29;20560;-80
2022/05/29 06:33:19;;;;;;;24.33;5.60;;;;;;;19.28;70.62;94502.38;4940699;29;20615;-81
2022/05/29 06:35:45;;;;;;;29.75;6.05;;;;;;;19.52;70.53;94504.94;4922635;29;20031;-81
2022/05/29 06:38:10;;;;;;;19.08;5.03;;;;;;;19.89;70.44;94556.59;4922962;29;20518;-81
2022/05/29 06:40:42;;;;;;;22.45;6.40;;;;;;;19.98;69.77;94576.06;4923393;29;20046;-81
2022/05/29 06:43:08;;;;;;;24.40;4.53;;;;;;;19.69;70.15;94517.25;4923657;29;20130;-81
2022/05/29 06:45:34;;;;;;;21.10;5.25;;;;;;;20.17;69.90;94561.88;4922777;29;20070;-80
2022/05/29 06:48:00;;;;;;;16.60;4.57;;;;;;;20.14;69.99;94537.59;4908732;29;20047;-81
2022/05/29 06:50:25;;;;;;;15.63;5.13;;;;;;;19.78;69.57;94487.50;4919018;29;20035;-81
2022/05/29 06:52:51;;;;;;;19.33;4.65;;;;;;;19.98;67.75;94508.78;4922693;29;20046;-81
2022/05/29 06:55:16;;;;;;;22.88;4.30;;;;;;;20.39;67.62;94563.19;4922726;29;20535;-81
2022/05/29 06:57:46;;;;;;;23.40;4.10;;;;;;;20.07;67.31;94497.81;4939920;28;20070;-81
2022/05/29 07:08:32;;;;;;;13.43;4.20;;;;;;;20.52;67.71;94543.09;4934782;28;20061;-81
2022/05/29 07:11:07;;;;;;;15.68;4.68;;;;;;;20.47;67.60;94511.06;4922391;29;20153;-81
2022/05/29 07:13:34;;;;;;;26.38;4.60;;;;;;;20.39;66.77;94517.41;4939755;29;20835;-81
2022/05/29 07:16:00;;;;;;;15.38;4.15;;;;;;;20.51;66.58;94562.31;4921683;29;20339;-81
2022/05/29 07:18:25;;;;;;;16.48;4.80;;;;;;;20.61;67.35;94554.47;4922264;29;20069;-81
2022/05/29 07:20:51;;;;;;;15.65;4.70;;;;;;;20.23;66.90;94493.19;4940036;29;20047;-81
2022/05/29 07:23:16;;;;;;;19.88;4.70;;;;;;;20.47;67.34;94515.66;4940579;29;20035;-81
2022/05/29 07:25:42;;;;;;;15.73;4.07;;;;;;;20.10;66.71;94475.59;4939982;29;20255;-81
2022/05/29 07:28:08;;;;;;;15.82;4.70;;;;;;;20.70;66.64;94551.56;4922122;29;20034;-82
2022/05/29 07:30:34;;;;;;;21.65;4.65;;;;;;;20.55;65.63;94539.69;4940285;29;20062;-81
2022/05/29 07:33:00;;;;;;;20.60;5.40;;;;;;;19.99;66.50;94455.69;4921935;29;20050;-81
2022/05/29 07:35:26;;;;;;;15.77;3.72;;;;;;;20.11;65.89;94482.53;4911315;29;20047;-81
2022/05/29 07:37:52;;;;;;;14.27;3.55;;;;;;;20.41;64.78;94504.38;4931628;29;20078;-82
2022/05/29 07:40:17;;;;;;;19.55;3.35;;;;;;;20.80;64.78;94542.94;4922119;29;20050;-81
2022/05/29 07:45:27;;;;;;;15.45;3.50;;;;;;;20.46;63.72;94479.06;4940096;28;20054;-81
2022/05/29 07:47:53;;;;;;;15.77;4.10;;;;;;;20.97;63.23;94545.22;4938277;29;20043;-81
2022/05/29 07:50:20;;;;;;;10.32;3.28;;;;;;;20.65;63.27;94474.50;4939386;29;20043;-81
2022/05/29 07:52:46;;;;;;;18.13;4.78;;;;;;;21.02;64.72;94525.28;4937407;29;20030;-81
2022/05/29 07:55:13;;;;;;;23.05;4.28;;;;;;;21.09;64.42;94514.66;4922552;29;20090;-81
2022/05/29 07:57:39;;;;;;;18.88;4.00;;;;;;;20.92;64.76;94482.72;4916190;29;20043;-82
2022/05/29 08:00:07;;;;;;;11.73;3.83;;;;;;;21.37;64.38;94528.69;4927684;29;20499;-81
2022/05/29 08:02:34;;;;;;;23.05;5.00;;;;;;;20.70;64.24;94452.66;4931674;29;20031;-81
2022/05/29 08:05:02;;;;;;;13.25;4.00;;;;;;;21.33;64.87;94533.25;4931507;29;20050;-82
2022/05/29 08:07:29;;;;;;;17.98;3.95;;;;;;;20.99;63.69;94474.78;4922073;29;20125;-81
2022/05/29 08:09:54;;;;;;;16.08;4.07;;;;;;;20.96;62.74;94454.72;4924263;29;20050;-81
2022/05/29 08:12:20;;;;;;;17.55;4.22;;;;;;;21.27;63.31;94477.28;4926005;28;20420;-81
2022/05/29 08:14:45;;;;;;;14.20;4.00;;;;;;;21.14;62.39;94426.16;4943840;29;20035;-81
2022/05/29 08:17:11;;;;;;;11.13;4.00;;;;;;;21.69;62.85;94499.59;4943366;29;20035;-81
2022/05/29 08:19:38;;;;;;;14.43;3.90;;;;;;;21.53;62.33;94459.25;4925938;29;20039;-82
2022/05/29 08:22:04;;;;;;;21.20;4.47;;;;;;;21.39;61.49;94409.66;4925167;29;20473;-81
2022/05/29 08:33:17;;;;;;;16.90;4.25;;;;;;;22.10;58.24;94495.28;4943735;29;20426;-81
2022/05/29 08:35:49;;;;;;;15.18;3.65;;;;;;;21.61;57.83;94416.97;4925444;29;20521;-81
2022/05/29 08:38:17;;;;;;;12.40;3.88;;;;;;;22.19;57.71;94497.75;4925228;29;20557;-81
2022/05/29 08:40:50;;;;;;;23.92;3.65;;;;;;;22.16;57.31;94490.34;4925271;29;20612;-81
2022/05/29 08:43:37;;;;;;;19.23;4.47;;;;;;;22.30;58.70;94483.22;4921629;29;20035;-80
2022/05/29 08:46:16;;;;;;;16.33;3.72;;;;;;;21.77;58.29;94389.84;4913675;29;20073;-81
2022/05/29 08:48:42;;;;;;;16.20;4.43;;;;;;;22.45;57.71;94494.22;4943130;29;20070;-81
2022/05/29 08:51:32;;;;;;;21.40;3.65;;;;;;;22.51;54.86;94471.94;4942813;29;20100;-80
2022/05/29 08:54:12;;;;;;;14.82;3.63;;;;;;;22.59;55.89;94475.50;4941409;28;20035;-81
2022/05/29 08:56:43;;;;;;;14.77;3.42;;;;;;;22.72;55.15;94468.75;4943067;29;20039;-81
2022/05/29 08:59:34;;;;;;;23.30;4.43;;;;;;;22.70;55.62;94466.41;4942421;29;20153;-81
2022/05/29 09:02:19;;;;;;;26.05;4.32;;;;;;;22.85;55.60;94472.03;4924852;29;20509;-81
2022/05/29 09:04:53;;;;;;;23.33;4.38;;;;;;;22.51;54.90;94409.78;4943115;29;20086;-81
2022/05/29 09:07:22;;;;;;;18.30;5.10;;;;;;;22.52;52.33;94389.72;4942504;29;20065;-81
2022/05/29 09:09:59;;;;;;;19.65;4.20;;;;;;;22.74;51.77;94433.25;4924641;29;20082;-81
2022/05/29 09:12:34;;;;;;;26.90;4.60;;;;;;;23.02;53.42;94458.72;4925070;29;20525;-80
2022/05/29 09:15:06;;;;;;;19.35;4.30;;;;;;;22.91;52.04;94440.81;4943178;28;20039;-80
2022/05/29 09:17:43;;;;;;;16.50;3.80;;;;;;;22.81;50.43;94400.94;4925050;29;20031;-81
2022/05/29 09:20:28;;;;;;;18.85;3.95;;;;;;;23.29;49.85;94456.66;4942476;28;20429;-81
2022/05/29 09:23:00;;;;;;;12.98;3.67;;;;;;;23.20;51.15;94429.13;4924495;29;20509;-81
2022/05/29 09:25:35;;;;;;;20.10;3.40;;;;;;;23.30;50.52;94449.34;4942376;28;20469;-82
2022/05/29 09:28:08;;;;;;;18.15;5.30;;;;;;;23.25;52.96;94406.41;4924728;29;20521;-81
2022/05/29 09:30:34;;;;;;;22.83;4.72;;;;;;;23.04;52.95;94377.19;4924319;29;20121;-81
2022/05/29 09:33:01;;;;;;;19.40;4.55;;;;;;;22.76;51.87;94330.97;4924396;29;20577;-81
2022/05/29 09:35:39;;;;;;;25.42;4.32;;;;;;;23.53;52.60;94444.56;4924632;29;20561;-81
2022/05/29 09:38:26;;;;;;;19.05;4.30;;;;;;;23.57;51.61;94444.59;4941764;29;20034;-81
2022/05/29 09:41:02;;;;;;;13.02;3.67;;;;;;;23.70;51.19;94443.94;4923545;29;20151;-82
2022/05/29 09:43:29;;;;;;;16.95;4.57;;;;;;;24.13;49.72;94438.84;4924041;29;20063;-81
2022/05/29 09:45:54;;;;;;;14.80;4.22;;;;;;;23.95;50.32;94305.25;4941514;28;20039;-82
2022/05/29 09:51:22;;;;;;;21.50;4.60;;;;;;;26.58;46.61;94425.84;4941929;29;20053;-81
2022/05/29 09:53:52;;;;;;;17.40;4.30;;;;;;;27.23;44.68;94393.34;4923460;28;20521;-81
2022/05/29 09:56:43;;;;;;;22.13;3.93;;;;;;;27.78;44.08;94397.22;4923640;29;20105;-81
2022/05/29 09:59:17;;;;;;;19.50;4.20;;;;;;;27.97;42.87;94366.72;4920029;29;20074;-81
2022/05/29 10:01:46;;;;;;;16.50;4.65;;;;;;;28.83;41.49;94404.81;4923661;29;20645;-81
2022/05/29 10:04:13;;;;;;;22.52;5.35;;;;;;;28.99;40.91;94380.44;4924780;29;20043;-81
2022/05/29 10:06:42;;;;;;;21.58;4.90;;;;;;;29.07;39.98;94355.34;4923120;29;20043;-81
2022/05/29 10:09:09;;;;;;;33.42;6.18;;;;;;;29.70;39.52;94384.88;4941167;29;20380;-81
2022/05/29 10:11:35;;;;;;;19.85;4.25;;;;;;;29.14;39.16;94371.63;4941218;29;20038;-82
2022/05/29 10:14:33;;;;;;;23.15;5.47;;;;;;;28.87;39.87;94323.66;4924271;29;20035;-81
2022/05/29 10:16:59;;;;;;;17.42;3.70;;;;;;;29.57;38.58;94379.22;4924226;29;20058;-82
2022/05/29 10:19:37;;;;;;;18.13;4.13;;;;;;;29.39;38.50;94373.25;4923977;29;20522;-81
2022/05/29 10:22:13;;;;;;;17.17;4.00;;;;;;;29.82;39.26;94384.31;4923448;29;20047;-81
2022/05/29 10:24:40;;;;;;;23.45;4.72;;;;;;;29.20;39.58;94305.66;4923844;29;20525;-81
2022/05/29 10:27:28;;;;;;;26.05;4.05;;;;;;;29.28;38.61;94323.47;4923967;29;20042;-81
2022/05/29 10:30:01;;;;;;;21.90;4.63;;;;;;;29.63;38.79;94322.16;4923521;29;20544;-82
2022/05/29 10:32:31;;;;;;;21.85;4.32;;;;;;;30.01;38.64;94374.63;4923203;29;20035;-81
2022/05/29 10:35:15;;;;;;;13.40;4.23;;;;;;;30.58;37.98;94366.19;4941535;29;20552;-81
2022/05/29 10:37:43;;;;;;;19.35;3.72;;;;;;;30.33;36.86;94292.78;4923599;29;20293;-81
2022/05/29 10:40:31;;;;;;;14.35;3.88;;;;;;;30.97;35.53;94362.66;4942022;29;20489;-81
2022/05/29 10:43:04;;;;;;;17.90;3.42;;;;;;;30.81;36.23;94357.13;4941152;29;20114;-81
2022/05/29 10:45:44;;;;;;;12.95;4.38;;;;;;;30.27;35.74;94286.28;4940783;28;20050;-81
2022/05/29 10:48:33;;;;;;;18.00;4.60;;;;;;;30.02;36.98;94294.94;4923213;29;20043;-81
2022/05/29 10:51:07;;;;;;;16.42;4.88;;;;;;;30.36;36.49;94352.13;4922614;29;20069;-81
2022/05/29 10:53:42;;;;;;;17.60;5.05;;;;;;;30.58;36.85;94347.81;4922917;29;20039;-81
2022/05/29 10:56:13;;;;;;;21.38;5.57;;;;;;;30.76;37.38;94352.13;4941223;29;20125;-81
2022/05/29 10:59:03;;;;;;;21.92;4.70;;;;;;;30.72;36.23;94345.97;4923597;29;20616;-81
2022/05/29 11:04:37;;;;;;;15.60;3.78;;;;;;;30.95;36.48;94338.44;4940080;29;20106;-81
2022/05/29 11:07:22;;;;;;;20.90;4.45;;;;;;;30.88;36.12;94348.78;4922692;29;20580;-81
2022/05/29 11:10:10;;;;;;;14.63;3.88;;;;;;;30.90;36.45;94335.41;4922697;29;20461;-81
2022/05/29 11:13:08;;;;;;;14.05;4.65;;;;;;;31.23;35.70;94331.59;4922373;29;20086;-81
2022/05/29 11:15:43;;;;;;;18.85;4.15;;;;;;;31.46;35.74;94325.19;4940579;29;20453;-81
2022/05/29 11:18:37;;;;;;;14.38;3.78;;;;;;;31.26;35.07;94327.22;4923152;29;20035;-81
2022/05/29 11:21:14;;;;;;;11.90;4.20;;;;;;;31.33;36.06;94313.38;4896139;29;20102;-81
2022/05/29 11:23:45;;;;;;;19.17;4.72;;;;;;;31.47;35.81;94306.78;4923665;29;20046;-81
2022/05/29 11:26:34;;;;;;;15.23;3.83;;;;;;;31.74;34.88;94310.81;4941632;29;20517;-81
2022/05/29 11:29:22;;;;;;;13.75;3.95;;;;;;;31.17;35.14;94225.72;4940896;28;20066;-81
2022/05/29 11:31:53;;;;;;;16.30;4.53;;;;;;;31.72;35.38;94294.03;4922997;29;20046;-81
2022/05/29 11:34:19;;;;;;;19.63;4.18;;;;;;;31.68;35.00;94281.59;4940099;29;20481;-81
2022/05/29 11:36:53;;;;;;;16.85;4.30;;;;;;;31.79;34.81;94271.16;4922365;29;20051;-81
2022/05/29 11:39:42;;;;;;;21.15;4.72;;;;;;;31.90;34.08;94240.69;4940618;29;20050;-82
2022/05/29 11:42:27;;;;;;;18.70;4.63;;;;;;;31.92;35.61;94266.50;4925909;29;20043;-81
2022/05/29 11:45:02;;;;;;;27.23;4.80;;;;;;;32.03;33.97;94258.75;4937617;29;20066;-81
2022/05/29 11:53:46;;;;;;;19.10;5.07;;;;;;;31.73;34.21;94204.34;4940416;28;20118;-81
2022/05/29 11:56:31;;;;;;;16.90;4.32;;;;;;;31.82;35.28;94229.91;4940365;29;20625;-81
2022/05/29 11:59:16;;;;;;;17.23;4.75;;;;;;;31.57;35.42;94242.72;4940096;29;20059;-81
2022/05/29 12:01:49;;;;;;;22.73;4.53;;;;;;;31.70;35.58;94227.91;4939833;29;20055;-81
2022/05/29 12:04:21;;;;;;;26.67;6.03;;;;;;;31.43;34.99;94214.47;4939265;29;20073;-81
2022/05/29 12:07:08;;;;;;;15.63;5.53;;;;;;;31.23;35.08;94183.69;4910205;29;20582;-81
2022/05/29 12:09:45;;;;;;;15.35;5.07;;;;;;;31.87;34.79;94247.06;4937657;29;20043;-81
2022/05/29 12:12:16;;;;;;;26.38;5.57;;;;;;;32.05;34.47;94244.59;4922642;29;20110;-81
2022/05/29 12:14:43;;;;;;;;;;;;;;;31.96;35.40;94242.50;4942798;29;20038;-81
2022/05/29 12:17:25;;;;;;;22.67;5.60;;;;;;;31.65;35.82;94172.84;4918488;29;20026;-81
2022/05/29 12:19:59;;;;;;;18.10;5.60;;;;;;;32.08;35.64;94225.31;4928970;29;20097;-82
2022/05/29 12:22:31;;;;;;;23.48;5.40;;;;;;;31.68;36.96;94224.03;4940134;29;20042;-82
2022/05/29 12:24:57;;;;;;;18.05;5.57;;;;;;;31.02;35.70;94138.41;4921879;29;20218;-81
2022/05/29 12:27:28;;;;;;;18.88;5.38;;;;;;;31.47;35.80;94227.31;4921905;29;20043;-81